Aérodrome :
LOGIN :

S'inscrire | Disclaimer

   EN    FR    IT 

 










Légende :    VFR   VFR Marginal   IFR   IFR Intensif   IFR Très Intensif
Visi : 
Plafond : 
>= 8 km
>= 3000ft
5 à 8 km
1000 à 3000 ft
1500m à 5 km
500 à 1000 ft
800 à 1500m
200 à 500 ft
< 800m
< 200 ft
Symboles :   Orages  Brouillard  Fortes neiges  Fortes précipitations  Vent > 20 kt
SIGMETs :   Divers  Orages  Givrage  Turbulence  Onde Orograph.  Cendres Volcan.







- Altitude de l'aérodrome : 3 ft
- Code IATA : LWR


EHLW - Leuuwarden Air Base

DERNIER METAR :
  • 281025Z AUTO 12009KT 070V150 7000 BR BKN004 OVC005 18/17 Q0996 YLO 11010KT 9000 FEW008 BKN025 TEMPO 3000 SHRA BKN006 BKN013 SCT025CB

METARs EXPIRÉS :
  • 281009Z AUTO 11010KT 060V160 5000 -SHRA BKN004 OVC006 17/17 Q0996 YLO 11010KT 9000 FEW008 BKN025 TEMPO 3000 SHRA BKN006 BKN013 SCT025CB
  • 280955Z AUTO 11009KT 040V160 9000 BR SCT005 BKN007 FEW015CB OVC031 17/17 Q0996 REDZ YLO 11010KT 9000 FEW008 BKN025 TEMPO 3000 SHRA SCT008 BKN013 SCT025CB
  • 280943Z AUTO 11008KT 050V160 8000 -RADZ FEW007 FEW015CB OVC031 17/17 Q0996 BLU 11010KT 8000 FEW008 BKN025 TEMPO 3000 SHRA SCT008 BKN013 SCT025CB
  • 280934Z AUTO 11007KT 050V150 8000 -RA FEW015CB BKN033 OVC038 17/16 Q0996 BLU 11010KT 7000 FEW008 BKN025 TEMPO 3000 SHRA SCT008 BKN013 SCT025CB
  • 280925Z AUTO 10008KT 040V150 9000 -RA FEW005 FEW015CB BKN065 OVC079 17/16 Q0996 BLU 11010KT 7000 FEW008 BKN020 TEMPO 3000 SHRA SCT008 BKN013 SCT025CB
  • 280914Z AUTO 11009KT 040V160 9000 -RA FEW008 SCT015CB BKN065 BKN087 16/16 Q0996 WHT 11010KT 7000 FEW008 BKN020 TEMPO 3000 SHRA SCT008 BKN013 SCT025CB
  • 280913Z AUTO 11010KT 040V160 9000 -RA FEW007 SCT011 BKN015CB 16/16 Q0996 GRN 11010KT 7000 FEW008 BKN020 TEMPO 3000 SHRA SCT008 BKN013 SCT025CB
  • 280900Z AUTO 10009KT 040V160 8000 -RA FEW006 BKN011 BKN013 BKN015CB 16/15 Q0996 GRN 11010KT 7000 FEW008 BKN020 TEMPO 3000 SHRA SCT008 BKN013 SCT025CB
  • 280855Z AUTO 10009KT 040V160 8000 -RA BKN011 BKN013 BKN015CB 16/15 Q0996 RERA GRN 11010KT 7000 FEW008 BKN020 TEMPO 3000 SHRA SCT008 SCT013 BKN020CB
  • 280842Z AUTO 11010KT 060V150 7000 SHRA FEW007 SCT010 BKN012 BKN015CB 16/15 Q0996 GRN 09014KT 9999 FEW008 BKN027 TEMPO 5000 -SHRA SCT008 SCT020CB BKN025
  • 280829Z AUTO 11010KT 050V160 7000 SHRA FEW001 BKN012 FEW015CB 16/15 Q0997 GRN 09014KT 9999 FEW008 BKN027 TEMPO 5000 -SHRA SCT008 SCT020CB BKN025
  • 280825Z AUTO 12010KT 050V160 3300 R05/P3000N SHRA BKN012 FEW015CB 16/15 Q0997 REDZ YLO 09014KT 9999 FEW008 BKN027 TEMPO 5000 -SHRA SCT008 SCT020CB BKN025
  • 280812Z AUTO 11012KT 050V150 9999 -RA BKN012 BKN015CB OVC037 17/15 Q0997 GRN 09014KT 9999 FEW008 BKN027 TEMPO 5000 -SHRA SCT008 SCT020CB BKN025
  • 280755Z AUTO 11010KT 040V160 9999 FEW052 SCT061 BKN078 17/15 Q0997 BLU 09014KT 9999 FEW008 BKN027 TEMPO 5000 -SHRA SCT008 SCT020CB BKN025

TAF TAF EHLW
Valide du 28 à 09h jusqu'au 28 à 21h UTC


280824Z 2809/2821 12010KT 9999 BKN013 BKN030
TEMPO 2809/2817 4000 SHRA TSRA BKN008 BKN020 SCT030CB
BECMG 2813/2816 18009KT
BECMG 2816/2819 23010KT BKN015
Pas de NOTAMs connus pour ce terrain.



MET'MAP, la Météo Aéronautique d'un coup d'oeil ! - Copyright ORBIFLY Décembre 2007 - Disclaimer

ORBIFLY MET'MAP TEAM :

Programmation & Développement : Alexandra Zaïnal
Conception & Développement : Baudouin d'Aumeries
Co-Programmation & Développement : Marc-Olivier Méhu
Soutien technique & logistique : Manuel Goepfert

Contact : metmap@orbifly.com




SOURCES & CREDITS :

   NOAA